createdAt,value
2023-03-26T00:01:24.571Z,1.20
2023-03-26T00:04:13.909Z,2.15
2023-03-26T00:07:01.837Z,1.50
2023-03-26T00:09:50.010Z,1.55
2023-03-26T00:12:38.007Z,1.65
2023-03-26T00:15:25.787Z,1.30
2023-03-26T00:18:13.548Z,1.50
2023-03-26T00:21:05.417Z,1.30
2023-03-26T00:23:53.567Z,1.30
2023-03-26T00:26:41.688Z,1.35
2023-03-26T00:29:33.174Z,1.67
2023-03-26T00:32:21.181Z,1.73
2023-03-26T00:35:09.761Z,1.55
2023-03-26T00:37:59.827Z,1.90
2023-03-26T00:40:48.011Z,1.85
2023-03-26T00:43:37.317Z,1.50
2023-03-26T00:46:25.750Z,1.50
2023-03-26T00:49:15.052Z,1.60
2023-03-26T00:52:03.621Z,1.60
2023-03-26T00:54:54.277Z,2.00
2023-03-26T00:57:42.312Z,1.80
2023-03-26T01:00:34.826Z,2.20
2023-03-26T01:03:27.950Z,2.42
2023-03-26T01:06:21.964Z,2.10
2023-03-26T01:09:15.905Z,2.20
2023-03-26T01:12:10.277Z,1.90
2023-03-26T01:15:01.730Z,2.10
2023-03-26T01:17:52.030Z,1.88
2023-03-26T01:20:46.606Z,1.98
2023-03-26T01:23:44.615Z,1.98
2023-03-26T01:26:54.055Z,2.08
2023-03-26T01:29:46.945Z,2.40
2023-03-26T01:32:47.836Z,2.30
2023-03-26T01:35:45.874Z,2.50
2023-03-26T01:38:46.432Z,2.70
2023-03-26T01:41:40.975Z,2.42
2023-03-26T01:44:35.710Z,2.15
2023-03-26T01:47:24.209Z,2.72
2023-03-26T01:50:12.250Z,2.55
2023-03-26T01:53:00.276Z,2.38
2023-03-26T01:55:59.187Z,1.70
2023-03-26T01:59:01.797Z,2.20
2023-03-26T02:02:01.947Z,2.50
2023-03-26T02:04:57.793Z,2.20
2023-03-26T02:07:50.894Z,4.18
2023-03-26T02:10:44.241Z,2.92
2023-03-26T02:13:35.315Z,3.30
2023-03-26T02:16:23.276Z,2.78
2023-03-26T02:19:15.862Z,2.67
2023-03-26T02:22:04.514Z,2.88
2023-03-26T02:24:52.461Z,3.00
2023-03-26T02:27:40.804Z,2.40
2023-03-26T02:30:29.606Z,2.50
2023-03-26T02:33:17.558Z,2.38
2023-03-26T02:36:08.763Z,2.05
2023-03-26T02:39:00.188Z,2.10
2023-03-26T02:41:48.022Z,2.03
2023-03-26T02:44:35.903Z,1.92
2023-03-26T02:47:23.752Z,1.88
2023-03-26T02:50:12.147Z,1.83
2023-03-26T02:53:01.749Z,1.58
2023-03-26T02:55:49.509Z,2.00
2023-03-26T02:58:37.440Z,2.00
2023-03-26T03:01:25.524Z,2.25
2023-03-26T03:04:13.965Z,1.83
2023-03-26T03:07:01.661Z,2.10
2023-03-26T03:09:51.035Z,2.40
2023-03-26T03:12:39.168Z,2.10
2023-03-26T03:15:27.349Z,2.13
2023-03-26T03:18:14.932Z,1.70
2023-03-26T03:21:02.957Z,1.90
2023-03-26T03:23:50.860Z,1.70
2023-03-26T03:26:42.323Z,1.58
2023-03-26T03:29:31.283Z,1.92
2023-03-26T03:32:18.879Z,1.48
2023-03-26T03:35:07.639Z,1.70
2023-03-26T03:37:55.443Z,1.40
2023-03-26T03:40:45.816Z,1.67
2023-03-26T03:43:34.952Z,1.33
2023-03-26T03:46:23.034Z,1.55
2023-03-26T03:49:10.738Z,1.75
2023-03-26T03:51:58.936Z,1.83
2023-03-26T03:54:47.080Z,2.67
2023-03-26T03:57:34.973Z,1.77
2023-03-26T04:00:24.387Z,1.70
2023-03-26T04:03:14.386Z,1.40
2023-03-26T04:06:02.591Z,1.85
2023-03-26T04:08:50.736Z,1.50
2023-03-26T04:11:38.951Z,1.33
2023-03-26T04:14:26.654Z,1.50
2023-03-26T04:17:16.117Z,1.77
2023-03-26T04:20:07.033Z,1.63
2023-03-26T04:22:55.076Z,1.52
2023-03-26T04:25:43.805Z,1.85
2023-03-26T04:28:35.553Z,1.98
2023-03-26T04:31:29.081Z,1.40
2023-03-26T04:34:25.162Z,1.85
2023-03-26T04:37:21.092Z,1.70
2023-03-26T04:40:13.357Z,1.45
2023-03-26T04:43:02.427Z,1.80
2023-03-26T04:45:50.431Z,1.98
2023-03-26T04:48:39.014Z,1.45
2023-03-26T04:51:38.152Z,1.60
2023-03-26T04:54:26.383Z,1.42
2023-03-26T04:57:21.186Z,1.60
2023-03-26T05:00:14.847Z,1.85
2023-03-26T05:03:03.042Z,1.70
2023-03-26T05:05:51.551Z,1.75
2023-03-26T05:08:41.717Z,1.67
2023-03-26T05:11:29.770Z,1.50
2023-03-26T05:14:17.471Z,1.67
2023-03-26T05:17:10.745Z,1.75
2023-03-26T05:19:58.927Z,2.10
2023-03-26T05:22:46.985Z,1.60
2023-03-26T05:25:36.360Z,1.67
2023-03-26T05:28:26.443Z,1.60
2023-03-26T05:31:15.510Z,1.45
2023-03-26T05:34:03.972Z,1.77
2023-03-26T05:36:52.005Z,1.67
2023-03-26T05:39:41.330Z,1.80
2023-03-26T05:42:30.703Z,1.60
2023-03-26T05:45:18.399Z,1.73
2023-03-26T05:48:06.870Z,1.50
2023-03-26T05:50:57.631Z,1.52
2023-03-26T05:53:45.748Z,1.50
2023-03-26T05:56:33.885Z,2.00
2023-03-26T05:59:23.165Z,2.00
2023-03-26T06:02:11.717Z,1.50
2023-03-26T06:04:59.733Z,2.30
2023-03-26T06:07:48.056Z,2.17
2023-03-26T06:10:38.417Z,1.75
2023-03-26T06:13:26.231Z,1.70
2023-03-26T06:16:26.315Z,1.88
2023-03-26T06:19:15.825Z,1.90
2023-03-26T06:22:03.819Z,1.20
2023-03-26T06:24:52.882Z,1.80
2023-03-26T06:27:40.894Z,1.80
2023-03-26T06:30:29.055Z,1.80
2023-03-26T06:33:18.709Z,1.60
2023-03-26T06:36:07.486Z,1.80
2023-03-26T06:38:55.841Z,2.10
2023-03-26T06:41:43.797Z,2.13
2023-03-26T06:44:31.830Z,1.77
2023-03-26T06:47:19.902Z,1.60
2023-03-26T06:50:11.832Z,1.30
2023-03-26T06:53:00.147Z,2.42
2023-03-26T06:55:48.002Z,1.13
2023-03-26T06:58:35.746Z,1.92
2023-03-26T07:01:23.627Z,1.90
2023-03-26T07:04:12.227Z,1.83
2023-03-26T07:07:01.455Z,1.90
2023-03-26T07:09:49.516Z,2.10
2023-03-26T07:12:37.192Z,1.70
2023-03-26T07:15:25.323Z,1.88
2023-03-26T07:18:13.372Z,2.88
2023-03-26T07:21:02.120Z,2.00
2023-03-26T07:23:53.272Z,1.92
2023-03-26T07:26:55.572Z,1.80
2023-03-26T07:29:49.866Z,1.90
2023-03-26T07:32:48.593Z,1.90
2023-03-26T07:35:42.713Z,1.63
2023-03-26T07:38:44.507Z,2.38
2023-03-26T07:41:43.246Z,1.90
2023-03-26T07:44:47.302Z,2.30
2023-03-26T07:47:36.700Z,2.30
2023-03-26T07:50:26.368Z,2.25
2023-03-26T07:53:15.210Z,2.20
2023-03-26T07:56:08.103Z,2.63
2023-03-26T07:59:05.781Z,2.40
2023-03-26T08:02:17.505Z,2.40
2023-03-26T08:05:19.736Z,2.22
2023-03-26T08:08:19.988Z,2.20
2023-03-26T08:11:15.814Z,1.77
2023-03-26T08:14:21.680Z,2.17
2023-03-26T08:17:14.299Z,2.25
2023-03-26T08:20:12.403Z,2.10
2023-03-26T08:23:09.300Z,1.90
2023-03-26T08:26:04.628Z,2.22
2023-03-26T08:29:03.910Z,2.20
2023-03-26T08:31:54.153Z,2.10
2023-03-26T08:34:44.285Z,1.95
2023-03-26T08:37:32.023Z,2.55
2023-03-26T08:40:36.897Z,2.17
2023-03-26T08:43:48.597Z,2.72
2023-03-26T08:47:02.590Z,2.28
2023-03-26T08:50:40.187Z,2.15
2023-03-26T08:54:10.129Z,2.22
2023-03-26T08:57:16.294Z,2.25
2023-03-26T09:00:38.504Z,2.13
2023-03-26T09:04:02.189Z,2.60
2023-03-26T09:07:09.809Z,2.30
2023-03-26T09:10:46.958Z,2.30
2023-03-26T09:14:14.756Z,2.65
2023-03-26T09:17:25.407Z,2.80
2023-03-26T09:20:55.915Z,2.50
2023-03-26T09:24:37.274Z,2.42
2023-03-26T09:27:39.164Z,2.53
2023-03-26T09:31:07.111Z,2.17
2023-03-26T09:34:08.233Z,3.25
2023-03-26T09:37:06.430Z,2.33
2023-03-26T09:40:10.135Z,2.70
2023-03-26T09:43:11.924Z,2.30
2023-03-26T09:46:09.522Z,2.38
2023-03-26T09:49:27.933Z,2.35
2023-03-26T09:52:42.089Z,2.40
2023-03-26T09:55:51.045Z,2.35
2023-03-26T09:59:09.494Z,2.33
2023-03-26T10:02:06.565Z,2.97
2023-03-26T10:05:20.622Z,2.50
2023-03-26T10:08:39.810Z,2.50
2023-03-26T10:11:40.482Z,2.55
2023-03-26T10:14:36.303Z,2.60
2023-03-26T10:17:37.803Z,3.25
2023-03-26T10:20:37.603Z,2.67
2023-03-26T10:23:49.914Z,2.30
2023-03-26T10:27:08.985Z,2.60
2023-03-26T10:30:26.341Z,2.80
2023-03-26T10:33:25.063Z,2.22
2023-03-26T10:36:38.191Z,3.35
2023-03-26T10:39:49.437Z,2.70
2023-03-26T10:43:14.133Z,2.38
2023-03-26T10:46:25.398Z,2.20
2023-03-26T10:49:42.244Z,2.63
2023-03-26T10:52:37.682Z,2.53
2023-03-26T10:55:34.704Z,2.65
2023-03-26T10:58:26.944Z,2.20
2023-03-26T11:01:24.595Z,2.58
2023-03-26T11:04:32.555Z,2.67
2023-03-26T11:07:27.905Z,2.03
2023-03-26T11:10:25.605Z,4.00
2023-03-26T11:13:24.076Z,3.35
2023-03-26T11:16:19.942Z,3.35
2023-03-26T11:19:17.698Z,2.92
2023-03-26T11:22:18.434Z,2.22
2023-03-26T11:25:27.343Z,2.58
2023-03-26T11:29:03.634Z,3.58
2023-03-26T11:32:01.480Z,2.28
2023-03-26T11:35:00.874Z,2.00
2023-03-26T11:37:53.381Z,2.00
2023-03-26T11:40:46.698Z,1.80
2023-03-26T11:46:28.521Z,2.22
2023-03-26T11:49:20.774Z,2.30
2023-03-26T11:52:11.041Z,2.10
2023-03-26T11:54:59.349Z,1.98
2023-03-26T11:57:53.684Z,2.00
2023-03-26T12:00:45.112Z,2.28
2023-03-26T12:03:33.852Z,2.85
2023-03-26T12:06:28.813Z,2.33
2023-03-26T12:09:20.955Z,2.58
2023-03-26T12:12:12.707Z,2.90
2023-03-26T12:15:01.844Z,2.33
2023-03-26T12:17:55.945Z,2.03
2023-03-26T12:20:45.271Z,2.25
2023-03-26T12:23:39.518Z,3.08
2023-03-26T12:26:35.976Z,3.30
2023-03-26T12:29:23.880Z,2.03
2023-03-26T12:32:16.478Z,2.85
2023-03-26T12:35:09.032Z,2.92
2023-03-26T12:38:14.369Z,3.97
2023-03-26T12:41:07.969Z,2.53
2023-03-26T12:44:53.413Z,2.38
2023-03-26T12:47:57.090Z,2.35
2023-03-26T12:50:34.437Z,2.20
2023-03-26T12:53:38.738Z,1.90
2023-03-26T12:56:36.772Z,3.60
2023-03-26T12:59:40.579Z,2.28
2023-03-26T13:02:58.870Z,2.53
2023-03-26T13:06:02.157Z,2.20
2023-03-26T13:09:18.140Z,2.10
2023-03-26T13:12:17.270Z,2.15
2023-03-26T13:15:17.700Z,7.47
2023-03-26T13:18:20.117Z,8.00
2023-03-26T13:21:18.251Z,6.15
2023-03-26T13:24:16.406Z,7.70
2023-03-26T13:27:19.723Z,2.17
2023-03-26T13:30:21.858Z,2.72
2023-03-26T13:33:27.640Z,2.07
2023-03-26T13:36:24.232Z,3.90
2023-03-26T13:39:23.480Z,4.30
2023-03-26T13:42:40.533Z,3.85
2023-03-26T13:45:44.167Z,2.50
2023-03-26T13:48:36.696Z,2.40
2023-03-26T13:51:31.903Z,3.80
2023-03-26T13:54:26.986Z,1.83
2023-03-26T13:57:21.476Z,1.70
2023-03-26T14:00:17.256Z,1.92
2023-03-26T14:03:17.502Z,2.20
2023-03-26T14:06:11.778Z,2.13
2023-03-26T14:09:06.821Z,3.85
2023-03-26T14:12:38.277Z,6.05
2023-03-26T14:15:31.352Z,3.60
2023-03-26T14:18:32.297Z,3.28
2023-03-26T14:21:41.320Z,3.03
2023-03-26T14:24:59.074Z,3.50
2023-03-26T14:28:02.107Z,3.60
2023-03-26T14:31:19.475Z,3.63
2023-03-26T14:34:38.462Z,3.35
2023-03-26T14:37:48.458Z,2.97
2023-03-26T14:40:58.101Z,3.80
2023-03-26T14:44:23.967Z,5.40
2023-03-26T14:47:17.029Z,3.47
2023-03-26T14:53:23.894Z,1.60
2023-03-26T14:56:43.581Z,1.45
2023-03-26T15:00:22.656Z,1.35
2023-03-26T15:04:04.336Z,1.52
2023-03-26T15:07:33.438Z,1.35
2023-03-26T15:10:50.962Z,1.40
2023-03-26T15:14:02.770Z,1.85
2023-03-26T15:17:39.574Z,1.90
2023-03-26T15:20:59.606Z,3.20
2023-03-26T15:24:32.934Z,2.28
2023-03-26T15:27:52.011Z,1.30
2023-03-26T15:31:31.696Z,1.48
2023-03-26T15:35:04.308Z,1.63
2023-03-26T15:38:20.777Z,1.20
2023-03-26T15:41:18.491Z,1.80
2023-03-26T15:44:25.581Z,1.92
2023-03-26T15:47:42.952Z,1.65
2023-03-26T15:50:47.484Z,1.55
2023-03-26T15:53:43.563Z,3.42
2023-03-26T15:56:53.031Z,3.80
2023-03-26T15:59:53.387Z,3.85
2023-03-26T16:02:53.650Z,6.38
2023-03-26T16:05:54.182Z,5.90
2023-03-26T16:08:54.098Z,5.75
2023-03-26T16:11:49.870Z,2.78
2023-03-26T16:14:44.551Z,2.72
2023-03-26T16:18:22.396Z,2.10
2023-03-26T16:21:41.221Z,2.53
2023-03-26T16:24:32.470Z,3.38
2023-03-26T16:27:32.397Z,4.68
2023-03-26T16:30:31.694Z,3.50
2023-03-26T16:33:23.361Z,4.22
2023-03-26T16:36:34.359Z,2.42
2023-03-26T16:39:38.287Z,2.17
2023-03-26T16:42:37.142Z,3.53
2023-03-26T16:45:30.600Z,2.13
2023-03-26T16:48:30.151Z,1.80
2023-03-26T16:51:27.294Z,1.50
2023-03-26T16:54:24.835Z,1.40
2023-03-26T16:57:27.053Z,1.60
2023-03-26T17:00:48.044Z,1.50
2023-03-26T17:03:44.943Z,1.30
2023-03-26T17:07:01.673Z,1.40
2023-03-26T17:10:00.582Z,1.90
2023-03-26T17:12:56.404Z,2.22
2023-03-26T17:15:54.149Z,1.80
2023-03-26T17:18:53.470Z,3.50
2023-03-26T17:21:52.674Z,1.65
2023-03-26T17:24:46.633Z,8.02
2023-03-26T17:27:41.292Z,3.30
2023-03-26T17:30:52.188Z,1.52
2023-03-26T17:33:41.035Z,1.70
2023-03-26T17:36:42.781Z,1.70
2023-03-26T17:40:12.619Z,1.95
2023-03-26T17:43:06.354Z,1.98
2023-03-26T17:46:03.391Z,1.88
2023-03-26T17:49:00.306Z,2.42
2023-03-26T17:51:58.397Z,1.90
2023-03-26T17:54:48.697Z,1.70
2023-03-26T17:57:41.990Z,1.70
2023-03-26T18:03:24.820Z,1.77
2023-03-26T18:06:17.771Z,2.70
2023-03-26T18:12:42.093Z,3.92
2023-03-26T18:15:46.739Z,3.58
2023-03-26T18:18:39.786Z,2.92
2023-03-26T18:21:33.664Z,1.92
2023-03-26T18:24:26.613Z,1.80
2023-03-26T18:30:14.961Z,1.50
2023-03-26T18:33:05.146Z,1.23
2023-03-26T18:35:56.321Z,1.58
2023-03-26T18:38:44.285Z,2.00
2023-03-26T18:41:39.328Z,2.60
2023-03-26T18:44:28.453Z,3.25
2023-03-26T18:47:16.403Z,3.22
2023-03-26T18:50:04.594Z,2.63
2023-03-26T18:52:52.664Z,2.10
2023-03-26T18:55:41.184Z,2.00
2023-03-26T18:58:34.369Z,1.55
2023-03-26T19:01:26.157Z,1.30
2023-03-26T19:04:14.731Z,1.33
2023-03-26T19:07:04.191Z,1.30
2023-03-26T19:09:56.200Z,2.00
2023-03-26T19:12:44.108Z,3.42
2023-03-26T19:15:35.386Z,2.92
2023-03-26T19:18:26.385Z,1.98
2023-03-26T19:21:17.968Z,1.52
2023-03-26T19:24:06.807Z,1.30
2023-03-26T19:26:54.738Z,2.13
2023-03-26T19:29:44.809Z,2.65
2023-03-26T19:32:34.622Z,2.50
2023-03-26T19:35:24.642Z,2.58
2023-03-26T19:38:23.472Z,2.40
2023-03-26T19:41:22.393Z,1.95
2023-03-26T19:44:21.571Z,1.83
2023-03-26T19:47:16.883Z,1.50
2023-03-26T19:50:25.539Z,1.50
2023-03-26T19:53:18.819Z,1.58
2023-03-26T19:56:13.515Z,1.85
2023-03-26T19:59:02.199Z,1.23
2023-03-26T20:01:49.860Z,1.50
2023-03-26T20:04:37.875Z,1.85
2023-03-26T20:07:35.961Z,1.73
2023-03-26T20:10:24.832Z,1.60
2023-03-26T20:13:16.815Z,1.40
2023-03-26T20:16:10.640Z,1.63
2023-03-26T20:19:02.272Z,1.42
2023-03-26T20:21:50.054Z,1.95
2023-03-26T20:24:39.393Z,2.13
2023-03-26T20:27:27.236Z,2.30
2023-03-26T20:30:19.039Z,2.10
2023-03-26T20:33:13.721Z,2.00
2023-03-26T20:36:01.844Z,1.83
2023-03-26T20:38:49.910Z,1.55
2023-03-26T20:41:42.816Z,1.50
2023-03-26T20:44:31.089Z,1.30
2023-03-26T20:47:19.079Z,1.35
2023-03-26T20:50:08.425Z,2.38
2023-03-26T20:52:59.785Z,1.70
2023-03-26T20:55:49.275Z,1.85
2023-03-26T20:58:40.729Z,1.70
2023-03-26T21:01:29.079Z,1.80
2023-03-26T21:04:17.450Z,1.50
2023-03-26T21:07:17.572Z,1.50
2023-03-26T21:10:07.231Z,1.65
2023-03-26T21:13:00.191Z,1.52
2023-03-26T21:15:49.866Z,1.80
2023-03-26T21:18:38.346Z,1.75
2023-03-26T21:21:44.155Z,1.65
2023-03-26T21:24:43.456Z,1.55
2023-03-26T21:27:41.165Z,1.58
2023-03-26T21:30:29.785Z,1.63
2023-03-26T21:33:19.886Z,1.60
2023-03-26T21:36:08.671Z,1.38
2023-03-26T21:38:57.178Z,1.42
2023-03-26T21:41:48.990Z,1.60
2023-03-26T21:44:53.627Z,1.70
2023-03-26T21:47:42.551Z,2.00
2023-03-26T21:50:32.843Z,2.22
2023-03-26T21:53:22.391Z,1.80
2023-03-26T21:56:20.457Z,2.70
2023-03-26T21:59:19.183Z,2.85
2023-03-26T22:02:13.977Z,2.75
2023-03-26T22:05:09.136Z,3.00
2023-03-26T22:08:02.084Z,2.67
2023-03-26T22:10:50.020Z,3.03
2023-03-26T22:13:38.989Z,2.90
2023-03-26T22:16:26.763Z,2.22
2023-03-26T22:19:14.762Z,2.13
2023-03-26T22:22:03.089Z,2.05
2023-03-26T22:24:52.371Z,2.08
2023-03-26T22:27:44.265Z,2.20
2023-03-26T22:30:34.262Z,1.88
2023-03-26T22:33:21.871Z,1.75
2023-03-26T22:36:22.456Z,1.52
2023-03-26T22:39:12.164Z,1.50
2023-03-26T22:42:02.137Z,1.40
2023-03-26T22:44:49.931Z,1.45
2023-03-26T22:47:38.788Z,1.27
2023-03-26T22:50:27.300Z,1.10
2023-03-26T22:53:15.072Z,1.38
2023-03-26T22:56:02.965Z,1.40
2023-03-26T22:58:52.212Z,1.48
2023-03-26T23:01:40.299Z,1.55
2023-03-26T23:04:31.219Z,1.75
2023-03-26T23:07:19.711Z,1.50
2023-03-26T23:10:09.166Z,2.03
2023-03-26T23:12:57.044Z,2.25
2023-03-26T23:15:47.259Z,2.08
2023-03-26T23:18:36.629Z,2.45
2023-03-26T23:21:24.698Z,1.83
2023-03-26T23:24:12.676Z,1.65
2023-03-26T23:27:00.741Z,1.55
2023-03-26T23:29:48.561Z,1.48
2023-03-26T23:32:38.313Z,1.48
2023-03-26T23:35:26.475Z,1.58
2023-03-26T23:38:14.098Z,1.40
2023-03-26T23:41:02.037Z,1.20
2023-03-26T23:43:55.472Z,1.23
2023-03-26T23:46:44.179Z,1.30
2023-03-26T23:49:33.173Z,1.30
2023-03-26T23:52:21.084Z,1.30
2023-03-26T23:55:09.935Z,1.25
2023-03-26T23:57:57.843Z,1.20
